Maugansville, MD (21767)

5:19 AM EST on December 19, 2014 (GMT -0500)
N. Hagerstown, MD | Change Station
CLOSE
Current Station
Personal Weather Station
Location: Hagerstown, MD
Elevation: 610 ft
Nearby Weather Stations

Elev 610 ft 39.67 °N, 77.73 °W | Updated 7 minutes ago

Overcast
Overcast
32.0 °F
Feels Like 32 °F
N
1.6
Wind Variable Wind from East

Today
High -- | Low -- °F
--% Chance of Precip.
Yesterday
High -- | Low -- °F
Precip. -- in
7:27 AM 4:49 PM
Waning Crescent, 9% visible
Pressure 30.13 in
Visibility 10.0 miles
Clouds Overcast 2700 ft
Windchill 32 °F
Dew Point 25 °F
Humidity 76%
Rainfall 0.00 in
Snow Depth Not available.
UV 0 out of 12
Pollen .10 out of 12
Air Quality Not available.
Flu Activity Not available.
METAR KHGR 190953Z AUTO 29012KT 10SM OVC027 01/M06 A3008 RMK AO2 SLP203 T00061056

More Conditions Fewer Conditions

Pressure 30.13 in
Visibility 10.0 miles
Clouds Overcast 2700 ft
Windchill 32 °F
Dew Point 25 °F
Humidity 76%
Rainfall 0.00 in
Snow Depth Not available.
UV 0 out of 12
Pollen .10 out of 12
Air Quality Not available.
Flu Activity Not available.
METAR KHGR 190953Z AUTO 29012KT 10SM OVC027 01/M06 A3008 RMK AO2 SLP203 T00061056

More Conditions Fewer Conditions

10-Day Weather Forecast

Almanac

Astronomy

Dec. 19, 2014 Rise Set
Actual Time
Civil Twilight
Nautical Twilight
Astronomical Twilight
Moon
Length of Visible Light
Length of Day
Tomorrow will be .
, % of the Moon is Illuminated

Today's Extremes

State Highs State Lows

Community

WunderPhotos

Upload Photos

1,778,966 photos uploaded!

WunderBlogs® & News

Nearby

Air Quality

  Air Quality AQ Index Pollutant
Not available.

Snow Depth

Station Depth Elevation

Earthquake Activity

City Distance Mag. Time & Date
Minimum magnitude displayed is 2.5.

Coastal Water Temperatures

Place Temperature

Nearby Weather Stations